Time;durP1;ratioP1;P1;durP2;ratioP2;P2;SDS_P1;SDS_P2;PMS_P1;PMS_P2;Temp;Humidity;BMP_temperature;BMP_pressure;BME280_temperature;BME280_humidity;BME280_pressure;Samples;Min_cycle;Max_cycle;Signal;HPM_P1;HPM_P2
2021/12/09 00:01:31;;;;;;;;;;;;;;;;;;5123363;28;20007;-79
2021/12/09 00:03:59;;;;;;;;;;;;;;;;;;5122851;28;19915;-79
2021/12/09 00:06:27;;;;;;;;;;;;;;;;;;5122906;28;19915;-79
2021/12/09 00:08:58;;;;;;;;;;;;;;;;;;5110491;28;19922;-79
2021/12/09 00:11:23;;;;;;;;;;;;;;;;;;5102243;28;19916;-79
2021/12/09 00:13:50;;;;;;;;;;;;;;;;;;5101421;28;19924;-79
2021/12/09 00:16:15;;;;;;;;;;;;;;;;;;5102265;28;19916;-79
2021/12/09 00:18:41;;;;;;;;;;;;;;;;;;5103142;28;19920;-79
2021/12/09 00:21:06;;;;;;;;;;;;;;;;;;5101616;28;19991;-79
2021/12/09 00:23:31;;;;;;;;;;;;;;;;;;5102971;28;19916;-79
2021/12/09 00:25:57;;;;;;;;;;;;;;;;;;5103270;28;19916;-79
2021/12/09 00:28:22;;;;;;;;;;;;;;;;;;5104109;28;19916;-79
2021/12/09 00:30:47;;;;;;;;;;;;;;;;;;5103535;28;19962;-79
2021/12/09 00:33:15;;;;;;;;;;;;;;;;;;5102792;28;20015;-79
2021/12/09 00:35:45;;;;;;;;;;;;;;;;;;5103623;28;19916;-79
2021/12/09 00:38:18;;;;;;;;;;;;;;;;;;5103706;28;20385;-79
2021/12/09 00:40:43;;;;;;;;;;;;;;;;;;5104293;28;19927;-79
2021/12/09 00:43:09;;;;;;;;;;;;;;;;;;5103826;28;19920;-79
2021/12/09 00:45:34;;;;;;;;;;;;;;;;;;5103600;28;19924;-79
2021/12/09 00:47:59;;;;;;;;;;;;;;;;;;5103065;28;19987;-79
2021/12/09 00:50:25;;;;;;;;;;;;;;;;;;5103438;28;19938;-79
2021/12/09 00:52:50;;;;;;;;;;;;;;;;;;5103333;28;19963;-79
2021/12/09 00:55:16;;;;;;;;;;;;;;;;;;5103379;28;19916;-79
2021/12/09 00:57:41;;;;;;;;;;;;;;;;;;5102811;28;19916;-79
2021/12/09 01:00:09;;;;;;;;;;;;;;;;;;5102959;28;20387;-79
2021/12/09 01:02:34;;;;;;;;;;;;;;;;;;5103002;28;19916;-79
2021/12/09 01:04:59;;;;;;;;;;;;;;;;;;5102103;28;19970;-79
2021/12/09 01:07:25;;;;;;;;;;;;;;;;;;5102486;28;19934;-79
2021/12/09 01:09:50;;;;;;;;;;;;;;;;;;5103369;28;19924;-79
2021/12/09 01:12:15;;;;;;;;;;;;;;;;;;5102979;28;19916;-79
2021/12/09 01:14:41;;;;;;;;;;;;;;;;;;5103137;28;19970;-79
2021/12/09 01:17:08;;;;;;;;;;;;;;;;;;5103904;28;19986;-79
2021/12/09 01:19:34;;;;;;;;;;;;;;;;;;5102603;28;19916;-79
2021/12/09 01:22:00;;;;;;;;;;;;;;;;;;5103454;28;19942;-79
2021/12/09 01:24:25;;;;;;;;;;;;;;;;;;5103467;28;19923;-79
2021/12/09 01:26:50;;;;;;;;;;;;;;;;;;5102577;28;19923;-79
2021/12/09 01:29:20;;;;;;;;;;;;;;;;;;5099677;28;19964;-79
2021/12/09 01:31:55;;;;;;;;;;;;;;;;;;5100547;28;20405;-79
2021/12/09 01:34:21;;;;;;;;;;;;;;;;;;5096534;28;20354;-79
2021/12/09 01:36:49;;;;;;;;;;;;;;;;;;5079735;28;19963;-79
2021/12/09 01:39:15;;;;;;;;;;;;;;;;;;5099525;28;19923;-79
2021/12/09 01:41:40;;;;;;;;;;;;;;;;;;5101445;28;19916;-79
2021/12/09 01:44:06;;;;;;;;;;;;;;;;;;5102669;28;19912;-79
2021/12/09 01:46:31;;;;;;;;;;;;;;;;;;5039662;28;1774223;-79
2021/12/09 01:48:57;;;;;;;;;;;;;;;;;;5103870;28;19970;-79
2021/12/09 01:51:22;;;;;;;;;;;;;;;;;;5103574;28;19923;-79
2021/12/09 01:53:48;;;;;;;;;;;;;;;;;;5104045;28;19988;-79
2021/12/09 01:56:20;;;;;;;;;;;;;;;;;;5103829;28;19916;-79
2021/12/09 01:58:46;;;;;;;;;;;;;;;;;;5103893;28;20270;-79
2021/12/09 02:01:11;;;;;;;;;;;;;;;;;;5104960;28;19916;-79
2021/12/09 02:03:37;;;;;;;;;;;;;;;;;;5105222;28;19916;-79
2021/12/09 02:06:02;;;;;;;;;;;;;;;;;;5104121;28;19916;-79
2021/12/09 02:08:28;;;;;;;;;;;;;;;;;;5106340;28;19916;-79
2021/12/09 02:10:53;;;;;;;;;;;;;;;;;;5106309;28;19916;-79
2021/12/09 02:13:19;;;;;;;;;;;;;;;;;;5105489;28;19980;-79
2021/12/09 02:15:45;;;;;;;;;;;;;;;;;;5106350;28;19927;-79
2021/12/09 02:18:12;;;;;;;;;;;;;;;;;;5106036;28;19970;-79
2021/12/09 02:20:39;;;;;;;;;;;;;;;;;;5126786;28;19923;-79
2021/12/09 02:23:09;;;;;;;;;;;;;;;;;;5126527;28;19951;-79
2021/12/09 02:25:35;;;;;;;;;;;;;;;;;;5125843;28;19916;-79
2021/12/09 02:28:00;;;;;;;;;;;;;;;;;;5126823;28;19923;-79
2021/12/09 02:30:26;;;;;;;;;;;;;;;;;;5125273;28;19920;-79
2021/12/09 02:32:51;;;;;;;;;;;;;;;;;;5125348;28;19928;-79
2021/12/09 02:35:17;;;;;;;;;;;;;;;;;;5126711;28;19915;-79
2021/12/09 02:37:44;;;;;;;;;;;;;;;;;;5127937;28;19955;-79
2021/12/09 02:40:10;;;;;;;;;;;;;;;;;;5122083;28;19935;-80
2021/12/09 02:42:36;;;;;;;;;;;;;;;;;;5120807;28;19957;-80
2021/12/09 02:45:03;;;;;;;;;;;;;;;;;;5120324;28;19915;-79
2021/12/09 02:47:29;;;;;;;;;;;;;;;;;;5119765;28;19975;-79
2021/12/09 02:49:54;;;;;;;;;;;;;;;;;;5100550;28;19966;-80
2021/12/09 02:52:19;;;;;;;;;;;;;;;;;;5099708;28;19916;-80
2021/12/09 02:54:45;;;;;;;;;;;;;;;;;;5100144;28;19966;-80
2021/12/09 02:57:11;;;;;;;;;;;;;;;;;;5100472;28;20305;-79
2021/12/09 02:59:36;;;;;;;;;;;;;;;;;;5100398;28;19912;-80
2021/12/09 03:02:04;;;;;;;;;;;;;;;;;;5099769;28;19916;-80
2021/12/09 03:04:39;;;;;;;;;;;;;;;;;;5099524;28;19995;-79
2021/12/09 03:07:05;;;;;;;;;;;;;;;;;;5099551;28;20366;-80
2021/12/09 03:09:31;;;;;;;;;;;;;;;;;;5099276;28;19919;-79
2021/12/09 03:12:03;;;;;;;;;;;;;;;;;;5103442;28;19945;-79
2021/12/09 03:14:28;;;;;;;;;;;;;;;;;;5121499;28;19927;-79
2021/12/09 03:16:53;;;;;;;;;;;;;;;;;;5120784;28;19916;-79
2021/12/09 03:19:19;;;;;;;;;;;;;;;;;;5120405;28;19927;-79
2021/12/09 03:21:45;;;;;;;;;;;;;;;;;;5093105;28;19917;-79
2021/12/09 03:24:13;;;;;;;;;;;;;;;;;;5079309;28;20289;-79
2021/12/09 03:26:42;;;;;;;;;;;;;;;;;;5078998;28;19917;-79
2021/12/09 03:29:08;;;;;;;;;;;;;;;;;;5095734;28;20008;-79
2021/12/09 03:31:36;;;;;;;;;;;;;;;;;;5090411;28;20326;-79
2021/12/09 03:34:01;;;;;;;;;;;;;;;;;;5087406;28;19925;-79
2021/12/09 03:36:28;;;;;;;;;;;;;;;;;;5089589;28;20369;-79
2021/12/09 03:38:58;;;;;;;;;;;;;;;;;;5082508;28;19923;-79
2021/12/09 03:41:24;;;;;;;;;;;;;;;;;;5089388;28;20404;-79
2021/12/09 03:43:49;;;;;;;;;;;;;;;;;;5085085;28;19920;-80
2021/12/09 03:46:14;;;;;;;;;;;;;;;;;;5089464;28;19957;-79
2021/12/09 03:48:40;;;;;;;;;;;;;;;;;;5086635;28;19916;-80
2021/12/09 03:51:05;;;;;;;;;;;;;;;;;;5096779;28;19923;-80
2021/12/09 03:53:30;;;;;;;;;;;;;;;;;;5099710;28;19920;-80
2021/12/09 03:55:56;;;;;;;;;;;;;;;;;;5099114;28;20258;-80
2021/12/09 03:58:21;;;;;;;;;;;;;;;;;;5099670;28;20370;-80
2021/12/09 04:00:47;;;;;;;;;;;;;;;;;;5099695;28;20393;-80
2021/12/09 04:03:12;;;;;;;;;;;;;;;;;;5099140;28;19987;-80
2021/12/09 04:05:38;;;;;;;;;;;;;;;;;;5099226;28;19916;-79
2021/12/09 04:08:03;;;;;;;;;;;;;;;;;;5099324;28;20361;-80
2021/12/09 04:10:30;;;;;;;;;;;;;;;;;;5099051;28;20250;-80
2021/12/09 04:12:56;;;;;;;;;;;;;;;;;;5099282;28;20006;-80
2021/12/09 04:15:21;;;;;;;;;;;;;;;;;;5098231;28;19916;-80
2021/12/09 04:17:46;;;;;;;;;;;;;;;;;;5100303;28;19916;-79
2021/12/09 04:20:12;;;;;;;;;;;;;;;;;;5099896;28;19916;-79
2021/12/09 04:22:37;;;;;;;;;;;;;;;;;;5100637;28;20002;-79
2021/12/09 04:25:04;;;;;;;;;;;;;;;;;;5100029;28;19955;-80
2021/12/09 04:27:30;;;;;;;;;;;;;;;;;;5099753;28;19920;-80
2021/12/09 04:29:55;;;;;;;;;;;;;;;;;;5097927;28;19923;-80
2021/12/09 04:32:21;;;;;;;;;;;;;;;;;;5098108;28;19956;-80
2021/12/09 04:34:46;;;;;;;;;;;;;;;;;;5098260;28;19920;-80
2021/12/09 04:37:12;;;;;;;;;;;;;;;;;;5100244;28;19916;-80
2021/12/09 04:39:37;;;;;;;;;;;;;;;;;;5102580;28;19916;-80
2021/12/09 04:42:04;;;;;;;;;;;;;;;;;;5103294;28;19916;-80
2021/12/09 04:44:29;;;;;;;;;;;;;;;;;;5103701;28;19920;-80
2021/12/09 04:46:56;;;;;;;;;;;;;;;;;;5102589;28;19920;-80
2021/12/09 04:49:21;;;;;;;;;;;;;;;;;;5115605;28;20699;-80
2021/12/09 04:51:47;;;;;;;;;;;;;;;;;;5124642;28;19940;-80
2021/12/09 04:54:12;;;;;;;;;;;;;;;;;;5124942;28;20361;-80
2021/12/09 04:56:38;;;;;;;;;;;;;;;;;;5124822;28;20281;-80
2021/12/09 04:59:04;;;;;;;;;;;;;;;;;;5125515;28;19958;-80
2021/12/09 05:01:29;;;;;;;;;;;;;;;;;;5125231;28;20289;-80
2021/12/09 05:03:55;;;;;;;;;;;;;;;;;;5125326;28;20377;-80
2021/12/09 05:06:20;;;;;;;;;;;;;;;;;;5124804;28;20076;-80
2021/12/09 05:08:48;;;;;;;;;;;;;;;;;;5113736;28;19923;-79
2021/12/09 05:12:00;;;;;;;;;;;;;;;;;;5105064;28;19965;-80
2021/12/09 05:14:01;;;;;;;;;;;;;;;;;;5093755;28;19928;-79
2021/12/09 05:16:26;;;;;;;;;;;;;;;;;;5104029;28;19935;-80
2021/12/09 05:18:57;;;;;;;;;;;;;;;;;;5104799;28;19934;-80
2021/12/09 05:21:23;;;;;;;;;;;;;;;;;;5103721;28;20053;-80
2021/12/09 05:23:48;;;;;;;;;;;;;;;;;;5105407;28;19916;-80
2021/12/09 05:26:15;;;;;;;;;;;;;;;;;;5104044;28;19916;-80
2021/12/09 05:28:40;;;;;;;;;;;;;;;;;;5105811;28;19916;-80
2021/12/09 05:33:51;;;;;;;;;;;;;;;;;;5106937;28;19920;-80
2021/12/09 05:36:17;;;;;;;;;;;;;;;;;;5105855;28;19922;-80
2021/12/09 05:38:42;;;;;;;;;;;;;;;;;;5105683;28;19923;-80
2021/12/09 05:41:08;;;;;;;;;;;;;;;;;;5085913;28;19980;-79
2021/12/09 05:43:34;;;;;;;;;;;;;;;;;;5084591;28;19958;-80
2021/12/09 05:45:59;;;;;;;;;;;;;;;;;;5084125;28;19924;-80
2021/12/09 05:48:25;;;;;;;;;;;;;;;;;;5083547;28;19916;-79
2021/12/09 05:50:50;;;;;;;;;;;;;;;;;;5084464;28;19916;-80
2021/12/09 05:53:16;;;;;;;;;;;;;;;;;;5083580;28;19920;-79
2021/12/09 05:55:43;;;;;;;;;;;;;;;;;;5085145;28;19920;-79
2021/12/09 05:58:13;;;;;;;;;;;;;;;;;;5085284;28;19924;-80
2021/12/09 06:00:38;;;;;;;;;;;;;;;;;;5083303;28;19936;-78
2021/12/09 06:03:04;;;;;;;;;;;;;;;;;;5080144;28;19999;-81
2021/12/09 06:05:29;;;;;;;;;;;;;;;;;;5084929;28;19973;-80
2021/12/09 06:07:55;;;;;;;;;;;;;;;;;;5101182;28;19916;-81
2021/12/09 06:10:21;;;;;;;;;;;;;;;;;;5100353;28;19916;-81
2021/12/09 06:12:46;;;;;;;;;;;;;;;;;;5100096;28;19966;-77
2021/12/09 06:15:12;;;;;;;;;;;;;;;;;;5097227;28;20006;-77
2021/12/09 06:17:37;;;;;;;;;;;;;;;;;;5101899;28;19916;-82
2021/12/09 06:20:03;;;;;;;;;;;;;;;;;;5098483;28;19916;-80
2021/12/09 06:22:28;;;;;;;;;;;;;;;;;;5098048;28;19916;-79
2021/12/09 06:24:53;;;;;;;;;;;;;;;;;;5095926;28;20377;-76
2021/12/09 06:27:19;;;;;;;;;;;;;;;;;;5099267;28;19923;-80
2021/12/09 06:29:44;;;;;;;;;;;;;;;;;;5099392;28;19916;-80
2021/12/09 06:32:11;;;;;;;;;;;;;;;;;;5099085;28;19920;-80
2021/12/09 06:34:36;;;;;;;;;;;;;;;;;;5100880;28;19920;-80
2021/12/09 06:37:02;;;;;;;;;;;;;;;;;;5102660;28;20442;-80
2021/12/09 06:39:27;;;;;;;;;;;;;;;;;;5103896;28;19916;-79
2021/12/09 06:41:52;;;;;;;;;;;;;;;;;;5100078;28;20425;-80
2021/12/09 06:44:18;;;;;;;;;;;;;;;;;;5097835;28;19963;-80
2021/12/09 06:46:43;;;;;;;;;;;;;;;;;;5098772;28;20495;-79
2021/12/09 06:49:08;;;;;;;;;;;;;;;;;;5097447;28;19999;-78
2021/12/09 06:51:34;;;;;;;;;;;;;;;;;;5098515;28;19985;-80
2021/12/09 06:53:59;;;;;;;;;;;;;;;;;;5095245;28;19924;-80
2021/12/09 06:56:25;;;;;;;;;;;;;;;;;;5095933;28;19916;-80
2021/12/09 06:58:50;;;;;;;;;;;;;;;;;;5096366;28;19969;-79
2021/12/09 07:01:16;;;;;;;;;;;;;;;;;;5095687;28;20384;-78
2021/12/09 07:03:42;;;;;;;;;;;;;;;;;;5094994;28;20010;-80
2021/12/09 07:06:08;;;;;;;;;;;;;;;;;;5096114;28;19916;-80
2021/12/09 07:08:42;;;;;;;;;;;;;;;;;;5095436;28;19916;-78
2021/12/09 07:11:08;;;;;;;;;;;;;;;;;;5097992;28;20312;-80
2021/12/09 07:13:33;;;;;;;;;;;;;;;;;;5098242;28;19927;-78
2021/12/09 07:15:59;;;;;;;;;;;;;;;;;;5095651;28;19942;-78
2021/12/09 07:18:25;;;;;;;;;;;;;;;;;;5094598;28;19923;-77
2021/12/09 07:20:51;;;;;;;;;;;;;;;;;;5095365;28;19926;-77
2021/12/09 07:23:17;;;;;;;;;;;;;;;;;;5098047;28;19916;-78
2021/12/09 07:25:42;;;;;;;;;;;;;;;;;;5097371;28;20003;-77
2021/12/09 07:28:07;;;;;;;;;;;;;;;;;;5096847;28;20317;-80
2021/12/09 07:30:32;;;;;;;;;;;;;;;;;;5097168;28;19916;-78
2021/12/09 07:32:58;;;;;;;;;;;;;;;;;;5096544;28;20028;-78
2021/12/09 07:35:26;;;;;;;;;;;;;;;;;;5095907;28;19921;-75
2021/12/09 07:37:51;;;;;;;;;;;;;;;;;;5095054;28;19916;-76
2021/12/09 07:40:17;;;;;;;;;;;;;;;;;;5096397;28;19966;-76
2021/12/09 07:42:43;;;;;;;;;;;;;;;;;;5095136;28;19916;-78
2021/12/09 07:45:09;;;;;;;;;;;;;;;;;;5098908;28;20388;-78
2021/12/09 07:47:34;;;;;;;;;;;;;;;;;;5095946;28;20007;-75
2021/12/09 07:50:00;;;;;;;;;;;;;;;;;;5094046;28;19979;-78
2021/12/09 07:52:25;;;;;;;;;;;;;;;;;;5095516;28;19923;-79
2021/12/09 07:54:50;;;;;;;;;;;;;;;;;;5095724;28;20385;-77
2021/12/09 07:57:16;;;;;;;;;;;;;;;;;;5094802;28;19916;-78
2021/12/09 07:59:41;;;;;;;;;;;;;;;;;;5093574;28;19916;-76
2021/12/09 08:02:07;;;;;;;;;;;;;;;;;;5093782;28;19968;-75
2021/12/09 08:04:33;;;;;;;;;;;;;;;;;;5094092;28;19919;-78
2021/12/09 08:06:58;;;;;;;;;;;;;;;;;;5093112;28;19916;-76
2021/12/09 08:09:24;;;;;;;;;;;;;;;;;;5095970;28;20001;-78
2021/12/09 08:11:49;;;;;;;;;;;;;;;;;;5097742;28;19919;-79
2021/12/09 08:14:16;;;;;;;;;;;;;;;;;;5102701;28;19920;-79
2021/12/09 08:16:42;;;;;;;;;;;;;;;;;;5104197;28;19922;-78
2021/12/09 08:19:11;;;;;;;;;;;;;;;;;;5103497;28;19987;-77
2021/12/09 08:21:37;;;;;;;;;;;;;;;;;;5097714;28;19978;-76
2021/12/09 08:24:04;;;;;;;;;;;;;;;;;;5099957;28;19927;-82
2021/12/09 08:26:29;;;;;;;;;;;;;;;;;;5098814;28;19969;-80
2021/12/09 08:28:54;;;;;;;;;;;;;;;;;;5088892;28;19916;-80
2021/12/09 08:31:20;;;;;;;;;;;;;;;;;;5089866;28;19916;-80
2021/12/09 08:33:49;;;;;;;;;;;;;;;;;;5098789;28;19928;-82
2021/12/09 08:36:14;;;;;;;;;;;;;;;;;;5092127;28;19916;-79
2021/12/09 08:38:40;;;;;;;;;;;;;;;;;;5092165;28;20015;-81
2021/12/09 08:41:05;;;;;;;;;;;;;;;;;;5088934;28;19916;-80
2021/12/09 08:43:31;;;;;;;;;;;;;;;;;;5090810;28;19923;-80
2021/12/09 08:45:56;;;;;;;;;;;;;;;;;;5087369;28;19920;-78
2021/12/09 08:48:23;;;;;;;;;;;;;;;;;;5082492;28;19931;-80
2021/12/09 08:50:50;;;;;;;;;;;;;;;;;;5085255;28;19927;-78
2021/12/09 08:53:16;;;;;;;;;;;;;;;;;;5075111;28;20378;-77
2021/12/09 08:55:42;;;;;;;;;;;;;;;;;;5080233;28;19963;-78
2021/12/09 08:58:09;;;;;;;;;;;;;;;;;;5079373;28;19917;-78
2021/12/09 09:00:35;;;;;;;;;;;;;;;;;;5081058;28;19966;-78
2021/12/09 09:03:01;;;;;;;;;;;;;;;;;;5083851;28;19923;-78
2021/12/09 09:05:27;;;;;;;;;;;;;;;;;;5093220;28;19916;-78
2021/12/09 09:07:53;;;;;;;;;;;;;;;;;;5097046;28;19916;-78
2021/12/09 09:10:20;;;;;;;;;;;;;;;;;;5097290;28;19936;-78
2021/12/09 09:12:45;;;;;;;;;;;;;;;;;;5097050;28;19920;-78
2021/12/09 09:15:12;;;;;;;;;;;;;;;;;;5097635;28;19923;-78
2021/12/09 09:17:38;;;;;;;;;;;;;;;;;;5097419;28;19916;-78
2021/12/09 09:20:04;;;;;;;;;;;;;;;;;;5095782;28;20266;-78
2021/12/09 09:22:30;;;;;;;;;;;;;;;;;;5097095;28;19916;-78
2021/12/09 09:24:55;;;;;;;;;;;;;;;;;;5097972;28;19923;-78
2021/12/09 09:27:20;;;;;;;;;;;;;;;;;;5097481;28;20014;-78
2021/12/09 09:29:45;;;;;;;;;;;;;;;;;;5097166;28;19916;-77
2021/12/09 09:32:12;;;;;;;;;;;;;;;;;;5097166;28;20354;-78
2021/12/09 09:34:37;;;;;;;;;;;;;;;;;;5096300;28;20273;-76
2021/12/09 09:37:04;;;;;;;;;;;;;;;;;;5095668;28;19927;-77
2021/12/09 09:39:31;;;;;;;;;;;;;;;;;;5095927;28;20005;-78
2021/12/09 09:42:20;;;;;;;;;;;;;;;;;;5094633;28;19916;-76
2021/12/09 09:44:54;;;;;;;;;;;;;;;;;;5096007;28;20512;-76
2021/12/09 09:47:24;;;;;;;;;;;;;;;;;;5095763;28;19924;-78
2021/12/09 09:49:50;;;;;;;;;;;;;;;;;;5090524;28;19923;-79
2021/12/09 09:52:15;;;;;;;;;;;;;;;;;;5086500;28;19917;-78
2021/12/09 09:54:41;;;;;;;;;;;;;;;;;;5085022;28;20299;-76
2021/12/09 09:57:07;;;;;;;;;;;;;;;;;;5074899;28;19916;-76
2021/12/09 09:59:32;;;;;;;;;;;;;;;;;;5074498;28;19916;-76
2021/12/09 10:01:58;;;;;;;;;;;;;;;;;;5075084;28;19922;-76
2021/12/09 10:05:28;;;;;;;;;;;;;;;;;;5081600;28;19916;-76
2021/12/09 10:07:21;;;;;;;;;;;;;;;;;;5085644;28;19923;-77
2021/12/09 10:09:47;;;;;;;;;;;;;;;;;;5093506;28;20004;-76
2021/12/09 10:12:12;;;;;;;;;;;;;;;;;;5095134;28;19938;-77
2021/12/09 10:14:38;;;;;;;;;;;;;;;;;;5095089;28;20448;-76
2021/12/09 10:17:12;;;;;;;;;;;;;;;;;;5094902;28;20366;-75
2021/12/09 10:19:49;;;;;;;;;;;;;;;;;;5094047;28;20286;-76
2021/12/09 10:22:20;;;;;;;;;;;;;;;;;;5095316;28;19916;-76
2021/12/09 10:24:46;;;;;;;;;;;;;;;;;;5094995;28;19996;-77
2021/12/09 10:27:22;;;;;;;;;;;;;;;;;;5093570;28;19916;-77
2021/12/09 10:29:47;;;;;;;;;;;;;;;;;;5094936;28;19916;-77
2021/12/09 10:32:21;;;;;;;;;;;;;;;;;;5094911;28;19916;-75
2021/12/09 10:34:47;;;;;;;;;;;;;;;;;;5094048;28;19920;-74
2021/12/09 10:37:13;;;;;;;;;;;;;;;;;;5094664;28;19923;-74
2021/12/09 10:39:38;;;;;;;;;;;;;;;;;;5094384;28;19916;-74
2021/12/09 10:42:06;;;;;;;;;;;;;;;;;;5094721;28;20278;-80
2021/12/09 10:44:34;;;;;;;;;;;;;;;;;;5084771;28;19916;-76
2021/12/09 10:47:09;;;;;;;;;;;;;;;;;;5081018;28;19924;-76
2021/12/09 10:50:12;;;;;;;;;;;;;;;;;;5082039;28;20033;-76
2021/12/09 10:52:42;;;;;;;;;;;;;;;;;;5070837;28;20072;-76
2021/12/09 10:55:15;;;;;;;;;;;;;;;;;;5084289;28;19916;-79
2021/12/09 10:57:41;;;;;;;;;;;;;;;;;;5084070;28;19923;-78
2021/12/09 11:00:17;;;;;;;;;;;;;;;;;;5092416;28;20592;-77
2021/12/09 11:03:01;;;;;;;;;;;;;;;;;;5094913;28;19916;-76
2021/12/09 11:05:26;;;;;;;;;;;;;;;;;;5075311;28;20413;-76
2021/12/09 11:07:52;;;;;;;;;;;;;;;;;;5094220;28;20011;-77
2021/12/09 11:10:19;;;;;;;;;;;;;;;;;;5095343;28;20404;-79
2021/12/09 11:12:53;;;;;;;;;;;;;;;;;;5077490;28;19923;-78
2021/12/09 11:15:20;;;;;;;;;;;;;;;;;;5078119;28;20326;-78
2021/12/09 11:17:51;;;;;;;;;;;;;;;;;;5095880;28;20386;-78
2021/12/09 11:20:35;;;;;;;;;;;;;;;;;;5077204;28;19916;-77
2021/12/09 11:23:20;;;;;;;;;;;;;;;;;;5093471;28;20297;-75
2021/12/09 11:25:46;;;;;;;;;;;;;;;;;;5076589;28;19957;-78
2021/12/09 11:28:12;;;;;;;;;;;;;;;;;;5095628;28;19916;-76
2021/12/09 11:30:59;;;;;;;;;;;;;;;;;;5100033;28;19925;-81
2021/12/09 11:33:43;;;;;;;;;;;;;;;;;;5101032;28;19992;-80
2021/12/09 11:36:17;;;;;;;;;;;;;;;;;;5106529;28;19923;-79
2021/12/09 11:39:06;;;;;;;;;;;;;;;;;;5126443;28;19915;-79
2021/12/09 11:41:35;;;;;;;;;;;;;;;;;;5125749;28;19916;-79
2021/12/09 11:44:01;;;;;;;;;;;;;;;;;;5130635;28;20522;-80
2021/12/09 11:46:27;;;;;;;;;;;;;;;;;;5124859;28;19927;-81
2021/12/09 11:48:52;;;;;;;;;;;;;;;;;;5095455;28;19916;-78
2021/12/09 11:51:17;;;;;;;;;;;;;;;;;;5103706;28;20384;-79
2021/12/09 11:53:44;;;;;;;;;;;;;;;;;;5102363;28;19924;-81
2021/12/09 11:56:31;;;;;;;;;;;;;;;;;;5104665;28;19926;-79
2021/12/09 12:07:54;;;;;;;;;;;;;;;;;;5103759;28;19970;-81
2021/12/09 12:13:31;;;;;;;;;;;;;;;;;;5104878;28;19920;-78
2021/12/09 12:16:00;;;;;;;;;;;;;;;;;;5103591;28;19916;-79
2021/12/09 12:26:38;;;;;;;;;;;;;;;;;;5098473;28;20358;-78
2021/12/09 12:30:00;;;;;;;;;;;;;;;;;;5080016;28;19916;-78
2021/12/09 12:40:33;;;;;;;;;;;;;;;;;;5116724;28;19916;-78
2021/12/09 12:43:04;;;;;;;;;;;;;;;;;;5117935;28;19915;-78
2021/12/09 12:48:30;;;;;;;;;;;;;;;;;;5117878;28;19961;-78
2021/12/09 12:51:09;;;;;;;;;;;;;;;;;;5117659;28;19938;-78
2021/12/09 12:53:37;;;;;;;;;;;;;;;;;;5117613;28;19927;-78
2021/12/09 12:56:17;;;;;;;;;;;;;;;;;;5117911;28;20011;-78
2021/12/09 12:59:01;;;;;;;;;;;;;;;;;;5116854;28;19968;-78
2021/12/09 13:01:26;;;;;;;;;;;;;;;;;;5117787;28;19965;-78
2021/12/09 13:03:56;;;;;;;;;;;;;;;;;;5108166;28;19948;-77
2021/12/09 13:06:44;;;;;;;;;;;;;;;;;;5097073;28;19916;-78
2021/12/09 13:09:20;;;;;;;;;;;;;;;;;;5097172;28;19923;-78
2021/12/09 13:11:51;;;;;;;;;;;;;;;;;;5097328;28;20397;-78
2021/12/09 13:14:22;;;;;;;;;;;;;;;;;;5097287;28;19942;-78
2021/12/09 13:16:59;;;;;;;;;;;;;;;;;;5097799;28;19961;-78
2021/12/09 13:19:41;;;;;;;;;;;;;;;;;;5095936;28;20011;-78
2021/12/09 13:22:10;;;;;;;;;;;;;;;;;;5097006;28;19923;-78
2021/12/09 13:24:46;;;;;;;;;;;;;;;;;;5095584;28;19961;-78
2021/12/09 13:27:39;;;;;;;;;;;;;;;;;;5095573;28;19916;-78
2021/12/09 13:49:09;;;;;;;;;;;;;;;;;;5096024;28;19926;-77
2021/12/09 13:51:54;;;;;;;;;;;;;;;;;;5096151;28;19952;-77
2021/12/09 13:54:26;;;;;;;;;;;;;;;;;;5094925;28;19931;-77
2021/12/09 13:57:03;;;;;;;;;;;;;;;;;;5094356;28;20366;-77
2021/12/09 13:59:29;;;;;;;;;;;;;;;;;;5095649;28;19916;-77
2021/12/09 14:01:56;;;;;;;;;;;;;;;;;;5095762;28;19956;-77
2021/12/09 14:04:23;;;;;;;;;;;;;;;;;;5095557;28;19920;-77
2021/12/09 14:09:26;;;;;;;;;;;;;;;;;;5094207;28;20289;-77
2021/12/09 14:11:51;;;;;;;;;;;;;;;;;;5095212;28;19920;-77
2021/12/09 14:14:23;;;;;;;;;;;;;;;;;;5095282;28;19973;-77
2021/12/09 14:16:54;;;;;;;;;;;;;;;;;;5095252;28;20392;-77
2021/12/09 14:21:46;;;;;;;;;;;;;;;;;;5095458;28;19955;-78
2021/12/09 14:24:20;;;;;;;;;;;;;;;;;;5095199;28;19959;-77
2021/12/09 14:26:50;;;;;;;;;;;;;;;;;;5095572;28;19923;-77
2021/12/09 14:29:15;;;;;;;;;;;;;;;;;;5095064;28;20348;-77
2021/12/09 14:31:45;;;;;;;;;;;;;;;;;;5094702;28;19999;-77
2021/12/09 14:34:11;;;;;;;;;;;;;;;;;;5093994;28;19920;-77
2021/12/09 14:36:37;;;;;;;;;;;;;;;;;;5095070;28;20014;-77
2021/12/09 14:39:04;;;;;;;;;;;;;;;;;;5094982;28;20011;-77
2021/12/09 14:41:30;;;;;;;;;;;;;;;;;;5095272;28;20386;-77
2021/12/09 14:43:55;;;;;;;;;;;;;;;;;;5094996;28;19963;-79
2021/12/09 14:46:24;;;;;;;;;;;;;;;;;;5096646;28;20022;-76
2021/12/09 14:48:50;;;;;;;;;;;;;;;;;;5095833;28;20313;-78
2021/12/09 14:51:16;;;;;;;;;;;;;;;;;;5096885;28;19916;-78
2021/12/09 14:53:42;;;;;;;;;;;;;;;;;;5095660;28;19927;-76
2021/12/09 14:56:18;;;;;;;;;;;;;;;;;;5094467;28;19916;-76
2021/12/09 14:58:44;;;;;;;;;;;;;;;;;;5094420;28;19927;-76
2021/12/09 15:01:14;;;;;;;;;;;;;;;;;;5094453;28;19920;-76
2021/12/09 15:03:43;;;;;;;;;;;;;;;;;;5094331;28;19920;-77
2021/12/09 15:06:25;;;;;;;;;;;;;;;;;;5093186;28;19916;-75
2021/12/09 15:08:55;;;;;;;;;;;;;;;;;;5093199;28;19920;-74
2021/12/09 15:11:20;;;;;;;;;;;;;;;;;;5094401;28;19966;-75
2021/12/09 15:13:50;;;;;;;;;;;;;;;;;;5094212;28;19986;-74
2021/12/09 15:16:19;;;;;;;;;;;;;;;;;;5094370;28;19930;-75
2021/12/09 15:18:45;;;;;;;;;;;;;;;;;;5096349;28;20425;-75
2021/12/09 15:21:21;;;;;;;;;;;;;;;;;;5096685;28;19951;-74
2021/12/09 15:23:55;;;;;;;;;;;;;;;;;;5094484;28;19916;-75
2021/12/09 15:26:24;;;;;;;;;;;;;;;;;;5092829;28;19924;-75
2021/12/09 15:29:09;;;;;;;;;;;;;;;;;;5093624;28;19916;-75
2021/12/09 15:31:35;;;;;;;;;;;;;;;;;;5093923;28;19923;-75
2021/12/09 15:34:05;;;;;;;;;;;;;;;;;;5093628;28;20273;-75
2021/12/09 15:36:32;;;;;;;;;;;;;;;;;;5093766;28;19923;-75
2021/12/09 15:39:04;;;;;;;;;;;;;;;;;;5093533;28;20331;-75
2021/12/09 15:41:32;;;;;;;;;;;;;;;;;;5082048;28;19955;-75
2021/12/09 15:44:00;;;;;;;;;;;;;;;;;;5082809;28;19923;-74
2021/12/09 15:46:26;;;;;;;;;;;;;;;;;;5083905;28;19943;-75
2021/12/09 15:48:52;;;;;;;;;;;;;;;;;;5078840;28;19923;-75
2021/12/09 15:51:22;;;;;;;;;;;;;;;;;;5073667;28;19950;-75
2021/12/09 15:54:08;;;;;;;;;;;;;;;;;;5073596;28;19967;-75
2021/12/09 15:56:40;;;;;;;;;;;;;;;;;;5073272;28;19979;-74
2021/12/09 15:59:07;;;;;;;;;;;;;;;;;;5073591;28;20014;-75
2021/12/09 16:01:34;;;;;;;;;;;;;;;;;;5073454;28;20408;-75
2021/12/09 16:03:59;;;;;;;;;;;;;;;;;;5077861;28;19923;-75
2021/12/09 16:06:25;;;;;;;;;;;;;;;;;;5073323;28;20305;-75
2021/12/09 16:08:50;;;;;;;;;;;;;;;;;;5076119;28;20351;-75
2021/12/09 16:11:20;;;;;;;;;;;;;;;;;;5085597;28;19920;-76
2021/12/09 16:13:46;;;;;;;;;;;;;;;;;;5074337;28;19920;-77
2021/12/09 16:16:15;;;;;;;;;;;;;;;;;;5074010;28;19939;-76
2021/12/09 16:18:41;;;;;;;;;;;;;;;;;;5083644;28;20003;-76
2021/12/09 16:21:10;;;;;;;;;;;;;;;;;;5078960;28;20015;-74
2021/12/09 16:23:36;;;;;;;;;;;;;;;;;;5079172;28;20262;-77
2021/12/09 16:26:02;;;;;;;;;;;;;;;;;;5079231;28;19923;-76
2021/12/09 16:28:28;;;;;;;;;;;;;;;;;;5088640;28;20402;-80
2021/12/09 16:30:55;;;;;;;;;;;;;;;;;;5077343;28;20002;-79
2021/12/09 16:33:21;;;;;;;;;;;;;;;;;;5078039;28;19986;-81
2021/12/09 16:35:46;;;;;;;;;;;;;;;;;;5083004;28;19920;-78
2021/12/09 16:38:13;;;;;;;;;;;;;;;;;;5081489;28;20442;-78
2021/12/09 16:40:39;;;;;;;;;;;;;;;;;;5082359;28;19916;-78
2021/12/09 16:43:06;;;;;;;;;;;;;;;;;;5080680;28;20305;-78
2021/12/09 16:45:36;;;;;;;;;;;;;;;;;;5062011;28;19921;-78
2021/12/09 16:48:03;;;;;;;;;;;;;;;;;;5079425;28;19916;-79
2021/12/09 16:50:33;;;;;;;;;;;;;;;;;;5095097;28;19923;-79
2021/12/09 16:52:59;;;;;;;;;;;;;;;;;;5079019;28;19945;-77
2021/12/09 16:55:24;;;;;;;;;;;;;;;;;;5076253;28;20403;-77
2021/12/09 16:57:52;;;;;;;;;;;;;;;;;;5077812;28;19920;-77
2021/12/09 17:00:28;;;;;;;;;;;;;;;;;;5077702;28;19923;-78
2021/12/09 17:02:54;;;;;;;;;;;;;;;;;;5077924;28;19993;-77
2021/12/09 17:05:20;;;;;;;;;;;;;;;;;;5097183;28;19948;-77
2021/12/09 17:07:47;;;;;;;;;;;;;;;;;;5097092;28;20386;-78
2021/12/09 17:10:13;;;;;;;;;;;;;;;;;;5097079;28;19916;-77
2021/12/09 17:12:39;;;;;;;;;;;;;;;;;;5096679;28;20343;-76
2021/12/09 17:15:05;;;;;;;;;;;;;;;;;;5096226;28;20006;-77
2021/12/09 17:17:30;;;;;;;;;;;;;;;;;;5096463;28;19920;-77
2021/12/09 17:19:56;;;;;;;;;;;;;;;;;;5095386;28;20003;-77
2021/12/09 17:22:22;;;;;;;;;;;;;;;;;;5095137;28;19923;-77
2021/12/09 17:24:47;;;;;;;;;;;;;;;;;;5096225;28;19916;-77
2021/12/09 17:27:12;;;;;;;;;;;;;;;;;;5096164;28;20281;-77
2021/12/09 17:29:38;;;;;;;;;;;;;;;;;;5095754;28;19916;-77
2021/12/09 17:32:03;;;;;;;;;;;;;;;;;;5096081;28;20106;-77
2021/12/09 17:34:31;;;;;;;;;;;;;;;;;;5095665;28;20012;-77
2021/12/09 17:36:57;;;;;;;;;;;;;;;;;;5096010;28;20358;-77
2021/12/09 17:39:23;;;;;;;;;;;;;;;;;;5094851;28;20370;-76
2021/12/09 17:41:52;;;;;;;;;;;;;;;;;;5094812;28;19923;-76
2021/12/09 17:44:19;;;;;;;;;;;;;;;;;;5095762;28;19923;-77
2021/12/09 17:46:45;;;;;;;;;;;;;;;;;;5095787;28;19920;-77
2021/12/09 17:49:12;;;;;;;;;;;;;;;;;;5094079;28;19930;-77